sensor_id;sensor_type;location;lat;lon;timestamp;P1;durP1;ratioP1;P2;durP2;ratioP2
52023;SDS011;38038;45.922;13.604;2023-03-05T00:01:19;18.43;;;16.87;;
52023;SDS011;38038;45.922;13.604;2023-03-05T00:03:48;17.67;;;16.17;;
52023;SDS011;38038;45.922;13.604;2023-03-05T00:06:16;18.57;;;16.70;;
52023;SDS011;38038;45.922;13.604;2023-03-05T00:08:42;17.47;;;16.07;;
52023;SDS011;38038;45.922;13.604;2023-03-05T00:11:09;17.70;;;16.13;;
52023;SDS011;38038;45.922;13.604;2023-03-05T00:13:36;16.87;;;15.63;;
52023;SDS011;38038;45.922;13.604;2023-03-05T00:16:03;16.80;;;15.33;;
52023;SDS011;38038;45.922;13.604;2023-03-05T00:18:31;17.53;;;15.73;;
52023;SDS011;38038;45.922;13.604;2023-03-05T00:20:57;17.97;;;16.47;;
52023;SDS011;38038;45.922;13.604;2023-03-05T00:23:23;18.57;;;16.97;;
52023;SDS011;38038;45.922;13.604;2023-03-05T00:25:48;16.80;;;15.33;;
52023;SDS011;38038;45.922;13.604;2023-03-05T00:28:14;18.77;;;17.00;;
52023;SDS011;38038;45.922;13.604;2023-03-05T00:30:43;18.90;;;17.23;;
52023;SDS011;38038;45.922;13.604;2023-03-05T00:33:09;19.30;;;17.60;;
52023;SDS011;38038;45.922;13.604;2023-03-05T00:35:40;21.37;;;19.07;;
52023;SDS011;38038;45.922;13.604;2023-03-05T00:38:08;20.83;;;19.07;;
52023;SDS011;38038;45.922;13.604;2023-03-05T00:40:35;21.60;;;19.27;;
52023;SDS011;38038;45.922;13.604;2023-03-05T00:43:02;20.07;;;18.03;;
52023;SDS011;38038;45.922;13.604;2023-03-05T00:45:28;22.23;;;20.10;;
52023;SDS011;38038;45.922;13.604;2023-03-05T00:50:29;21.27;;;19.27;;
52023;SDS011;38038;45.922;13.604;2023-03-05T00:52:55;19.40;;;17.43;;
52023;SDS011;38038;45.922;13.604;2023-03-05T00:55:20;19.17;;;17.47;;
52023;SDS011;38038;45.922;13.604;2023-03-05T00:57:46;20.63;;;18.57;;
52023;SDS011;38038;45.922;13.604;2023-03-05T01:00:13;20.07;;;18.13;;
52023;SDS011;38038;45.922;13.604;2023-03-05T01:02:40;18.70;;;16.90;;
52023;SDS011;38038;45.922;13.604;2023-03-05T01:05:06;19.33;;;17.73;;
52023;SDS011;38038;45.922;13.604;2023-03-05T01:07:32;17.53;;;15.93;;
52023;SDS011;38038;45.922;13.604;2023-03-05T01:09:58;19.67;;;17.77;;
52023;SDS011;38038;45.922;13.604;2023-03-05T01:12:24;20.87;;;16.80;;
52023;SDS011;38038;45.922;13.604;2023-03-05T01:14:50;19.60;;;17.80;;
52023;SDS011;38038;45.922;13.604;2023-03-05T01:17:15;18.83;;;16.90;;
52023;SDS011;38038;45.922;13.604;2023-03-05T01:19:41;20.63;;;18.50;;
52023;SDS011;38038;45.922;13.604;2023-03-05T01:22:07;20.30;;;18.43;;
52023;SDS011;38038;45.922;13.604;2023-03-05T01:24:32;18.93;;;17.07;;
52023;SDS011;38038;45.922;13.604;2023-03-05T01:26:58;17.97;;;16.40;;
52023;SDS011;38038;45.922;13.604;2023-03-05T01:29:24;18.83;;;17.07;;
52023;SDS011;38038;45.922;13.604;2023-03-05T01:31:49;21.90;;;19.60;;
52023;SDS011;38038;45.922;13.604;2023-03-05T01:34:15;19.13;;;17.50;;
52023;SDS011;38038;45.922;13.604;2023-03-05T01:36:42;19.10;;;17.43;;
52023;SDS011;38038;45.922;13.604;2023-03-05T01:39:08;18.67;;;17.07;;
52023;SDS011;38038;45.922;13.604;2023-03-05T01:41:34;18.50;;;16.90;;
52023;SDS011;38038;45.922;13.604;2023-03-05T01:43:59;18.13;;;16.60;;
52023;SDS011;38038;45.922;13.604;2023-03-05T01:48:59;18.47;;;16.80;;
52023;SDS011;38038;45.922;13.604;2023-03-05T01:52:20;19.43;;;17.67;;
52023;SDS011;38038;45.922;13.604;2023-03-05T01:57:35;17.37;;;16.00;;
52023;SDS011;38038;45.922;13.604;2023-03-05T02:00:17;16.90;;;15.47;;
52023;SDS011;38038;45.922;13.604;2023-03-05T02:02:47;17.07;;;15.67;;
52023;SDS011;38038;45.922;13.604;2023-03-05T02:05:25;18.93;;;17.33;;
52023;SDS011;38038;45.922;13.604;2023-03-05T02:07:54;18.53;;;16.93;;
52023;SDS011;38038;45.922;13.604;2023-03-05T02:10:27;18.27;;;16.67;;
52023;SDS011;38038;45.922;13.604;2023-03-05T02:12:56;17.20;;;15.87;;
52023;SDS011;38038;45.922;13.604;2023-03-05T02:15:24;17.07;;;15.57;;
52023;SDS011;38038;45.922;13.604;2023-03-05T02:17:50;17.80;;;16.40;;
52023;SDS011;38038;45.922;13.604;2023-03-05T02:20:27;18.47;;;16.23;;
52023;SDS011;38038;45.922;13.604;2023-03-05T02:22:54;17.03;;;15.73;;
52023;SDS011;38038;45.922;13.604;2023-03-05T02:25:21;18.37;;;16.73;;
52023;SDS011;38038;45.922;13.604;2023-03-05T02:30:32;17.73;;;16.23;;
52023;SDS011;38038;45.922;13.604;2023-03-05T02:32:59;17.53;;;16.10;;
52023;SDS011;38038;45.922;13.604;2023-03-05T02:35:25;18.23;;;16.83;;
52023;SDS011;38038;45.922;13.604;2023-03-05T02:37:51;18.47;;;16.90;;
52023;SDS011;38038;45.922;13.604;2023-03-05T02:40:16;18.53;;;17.07;;
52023;SDS011;38038;45.922;13.604;2023-03-05T02:42:42;19.53;;;17.93;;
52023;SDS011;38038;45.922;13.604;2023-03-05T02:45:08;19.50;;;17.77;;
52023;SDS011;38038;45.922;13.604;2023-03-05T02:47:35;18.00;;;16.40;;
52023;SDS011;38038;45.922;13.604;2023-03-05T02:50:01;18.20;;;16.57;;
52023;SDS011;38038;45.922;13.604;2023-03-05T02:52:28;17.30;;;15.83;;
52023;SDS011;38038;45.922;13.604;2023-03-05T02:54:55;18.80;;;17.17;;
52023;SDS011;38038;45.922;13.604;2023-03-05T02:57:20;17.30;;;15.83;;
52023;SDS011;38038;45.922;13.604;2023-03-05T02:59:46;18.73;;;16.67;;
52023;SDS011;38038;45.922;13.604;2023-03-05T03:02:12;16.97;;;15.57;;
52023;SDS011;38038;45.922;13.604;2023-03-05T03:04:38;18.57;;;16.87;;
52023;SDS011;38038;45.922;13.604;2023-03-05T03:07:04;18.20;;;16.70;;
52023;SDS011;38038;45.922;13.604;2023-03-05T03:09:30;16.47;;;15.27;;
52023;SDS011;38038;45.922;13.604;2023-03-05T03:11:59;18.50;;;16.90;;
52023;SDS011;38038;45.922;13.604;2023-03-05T03:14:25;18.13;;;16.60;;
52023;SDS011;38038;45.922;13.604;2023-03-05T03:16:50;20.00;;;18.40;;
52023;SDS011;38038;45.922;13.604;2023-03-05T03:19:16;17.67;;;16.37;;
52023;SDS011;38038;45.922;13.604;2023-03-05T03:21:42;17.03;;;15.83;;
52023;SDS011;38038;45.922;13.604;2023-03-05T03:24:07;17.43;;;16.03;;
52023;SDS011;38038;45.922;13.604;2023-03-05T03:26:33;17.63;;;16.17;;
52023;SDS011;38038;45.922;13.604;2023-03-05T03:28:59;17.33;;;16.10;;
52023;SDS011;38038;45.922;13.604;2023-03-05T03:31:24;19.40;;;17.43;;
52023;SDS011;38038;45.922;13.604;2023-03-05T03:33:50;16.90;;;15.50;;
52023;SDS011;38038;45.922;13.604;2023-03-05T03:36:16;17.20;;;15.77;;
52023;SDS011;38038;45.922;13.604;2023-03-05T03:38:42;17.53;;;16.23;;
52023;SDS011;38038;45.922;13.604;2023-03-05T03:41:08;17.73;;;16.37;;
52023;SDS011;38038;45.922;13.604;2023-03-05T03:43:34;18.03;;;16.63;;
52023;SDS011;38038;45.922;13.604;2023-03-05T03:46:02;16.63;;;15.33;;
52023;SDS011;38038;45.922;13.604;2023-03-05T03:48:29;18.83;;;17.23;;
52023;SDS011;38038;45.922;13.604;2023-03-05T03:50:55;17.93;;;16.53;;
52023;SDS011;38038;45.922;13.604;2023-03-05T03:53:20;19.17;;;17.57;;
52023;SDS011;38038;45.922;13.604;2023-03-05T03:55:46;17.50;;;16.00;;
52023;SDS011;38038;45.922;13.604;2023-03-05T03:58:12;16.97;;;15.43;;
52023;SDS011;38038;45.922;13.604;2023-03-05T04:00:38;17.87;;;16.27;;
52023;SDS011;38038;45.922;13.604;2023-03-05T04:03:05;18.03;;;16.53;;
52023;SDS011;38038;45.922;13.604;2023-03-05T04:05:31;18.33;;;16.73;;
52023;SDS011;38038;45.922;13.604;2023-03-05T04:07:57;17.93;;;16.53;;
52023;SDS011;38038;45.922;13.604;2023-03-05T04:10:24;16.80;;;15.50;;
52023;SDS011;38038;45.922;13.604;2023-03-05T04:12:50;19.23;;;17.73;;
52023;SDS011;38038;45.922;13.604;2023-03-05T04:15:16;19.20;;;17.80;;
52023;SDS011;38038;45.922;13.604;2023-03-05T04:17:42;17.80;;;16.50;;
52023;SDS011;38038;45.922;13.604;2023-03-05T04:20:08;18.07;;;16.53;;
52023;SDS011;38038;45.922;13.604;2023-03-05T04:22:34;25.03;;;16.90;;
52023;SDS011;38038;45.922;13.604;2023-03-05T04:25:01;18.33;;;16.83;;
52023;SDS011;38038;45.922;13.604;2023-03-05T04:27:31;18.43;;;16.87;;
52023;SDS011;38038;45.922;13.604;2023-03-05T04:29:58;16.57;;;15.17;;
52023;SDS011;38038;45.922;13.604;2023-03-05T04:32:24;17.33;;;16.13;;
52023;SDS011;38038;45.922;13.604;2023-03-05T04:34:50;20.00;;;18.27;;
52023;SDS011;38038;45.922;13.604;2023-03-05T04:37:16;20.43;;;18.63;;
52023;SDS011;38038;45.922;13.604;2023-03-05T04:39:42;19.17;;;17.83;;
52023;SDS011;38038;45.922;13.604;2023-03-05T04:42:07;20.10;;;18.30;;
52023;SDS011;38038;45.922;13.604;2023-03-05T04:44:34;20.03;;;18.50;;
52023;SDS011;38038;45.922;13.604;2023-03-05T04:47:00;17.47;;;16.30;;
52023;SDS011;38038;45.922;13.604;2023-03-05T04:49:26;18.20;;;16.67;;
52023;SDS011;38038;45.922;13.604;2023-03-05T04:51:51;19.93;;;18.27;;
52023;SDS011;38038;45.922;13.604;2023-03-05T04:54:17;19.40;;;18.07;;
52023;SDS011;38038;45.922;13.604;2023-03-05T04:56:43;20.63;;;18.93;;
52023;SDS011;38038;45.922;13.604;2023-03-05T04:59:08;19.07;;;17.50;;
52023;SDS011;38038;45.922;13.604;2023-03-05T05:01:34;17.83;;;16.63;;
52023;SDS011;38038;45.922;13.604;2023-03-05T05:04:00;18.13;;;16.77;;
52023;SDS011;38038;45.922;13.604;2023-03-05T05:06:26;17.97;;;16.63;;
52023;SDS011;38038;45.922;13.604;2023-03-05T05:08:51;19.20;;;17.70;;
52023;SDS011;38038;45.922;13.604;2023-03-05T05:11:17;19.93;;;18.13;;
52023;SDS011;38038;45.922;13.604;2023-03-05T05:13:43;19.67;;;18.17;;
52023;SDS011;38038;45.922;13.604;2023-03-05T05:16:09;19.13;;;17.73;;
52023;SDS011;38038;45.922;13.604;2023-03-05T05:18:35;17.90;;;16.67;;
52023;SDS011;38038;45.922;13.604;2023-03-05T05:21:01;18.90;;;17.17;;
52023;SDS011;38038;45.922;13.604;2023-03-05T05:23:30;20.03;;;18.53;;
52023;SDS011;38038;45.922;13.604;2023-03-05T05:25:57;18.33;;;17.07;;
52023;SDS011;38038;45.922;13.604;2023-03-05T05:28:27;16.70;;;15.50;;
52023;SDS011;38038;45.922;13.604;2023-03-05T05:30:53;16.40;;;15.23;;
52023;SDS011;38038;45.922;13.604;2023-03-05T05:33:20;15.43;;;14.43;;
52023;SDS011;38038;45.922;13.604;2023-03-05T05:35:46;16.97;;;15.77;;
52023;SDS011;38038;45.922;13.604;2023-03-05T05:38:12;17.53;;;15.97;;
52023;SDS011;38038;45.922;13.604;2023-03-05T05:40:38;15.53;;;14.40;;
52023;SDS011;38038;45.922;13.604;2023-03-05T05:43:04;19.00;;;17.43;;
52023;SDS011;38038;45.922;13.604;2023-03-05T05:45:31;20.63;;;18.80;;
52023;SDS011;38038;45.922;13.604;2023-03-05T05:47:57;28.70;;;23.53;;
52023;SDS011;38038;45.922;13.604;2023-03-05T05:50:22;20.40;;;18.57;;
52023;SDS011;38038;45.922;13.604;2023-03-05T05:52:49;16.50;;;15.20;;
52023;SDS011;38038;45.922;13.604;2023-03-05T05:55:16;17.37;;;15.77;;
52023;SDS011;38038;45.922;13.604;2023-03-05T05:57:41;16.47;;;15.03;;
52023;SDS011;38038;45.922;13.604;2023-03-05T06:00:08;16.30;;;15.10;;
52023;SDS011;38038;45.922;13.604;2023-03-05T06:02:39;19.13;;;17.80;;
52023;SDS011;38038;45.922;13.604;2023-03-05T06:05:07;15.33;;;13.97;;
52023;SDS011;38038;45.922;13.604;2023-03-05T06:07:35;16.50;;;14.87;;
52023;SDS011;38038;45.922;13.604;2023-03-05T06:10:01;14.80;;;13.73;;
52023;SDS011;38038;45.922;13.604;2023-03-05T06:12:28;15.93;;;14.63;;
52023;SDS011;38038;45.922;13.604;2023-03-05T06:14:53;15.83;;;14.67;;
52023;SDS011;38038;45.922;13.604;2023-03-05T06:17:19;15.80;;;14.60;;
52023;SDS011;38038;45.922;13.604;2023-03-05T06:19:45;16.37;;;15.07;;
52023;SDS011;38038;45.922;13.604;2023-03-05T06:22:10;15.97;;;14.67;;
52023;SDS011;38038;45.922;13.604;2023-03-05T06:24:37;15.57;;;14.47;;
52023;SDS011;38038;45.922;13.604;2023-03-05T06:27:03;16.50;;;15.17;;
52023;SDS011;38038;45.922;13.604;2023-03-05T06:29:29;14.67;;;13.67;;
52023;SDS011;38038;45.922;13.604;2023-03-05T06:31:55;16.37;;;14.97;;
52023;SDS011;38038;45.922;13.604;2023-03-05T06:34:20;15.43;;;14.23;;
52023;SDS011;38038;45.922;13.604;2023-03-05T06:36:46;15.27;;;14.17;;
52023;SDS011;38038;45.922;13.604;2023-03-05T06:39:12;15.93;;;14.37;;
52023;SDS011;38038;45.922;13.604;2023-03-05T06:41:38;14.90;;;13.77;;
52023;SDS011;38038;45.922;13.604;2023-03-05T06:44:04;15.70;;;14.43;;
52023;SDS011;38038;45.922;13.604;2023-03-05T06:46:32;14.83;;;13.63;;
52023;SDS011;38038;45.922;13.604;2023-03-05T06:49:01;14.30;;;13.23;;
52023;SDS011;38038;45.922;13.604;2023-03-05T06:53:55;14.43;;;13.27;;
52023;SDS011;38038;45.922;13.604;2023-03-05T06:56:24;15.10;;;13.77;;
52023;SDS011;38038;45.922;13.604;2023-03-05T06:58:50;15.33;;;13.97;;
52023;SDS011;38038;45.922;13.604;2023-03-05T07:01:17;14.83;;;13.73;;
52023;SDS011;38038;45.922;13.604;2023-03-05T07:03:44;15.40;;;14.03;;
52023;SDS011;38038;45.922;13.604;2023-03-05T07:06:13;14.37;;;13.37;;
52023;SDS011;38038;45.922;13.604;2023-03-05T07:08:39;14.10;;;13.10;;
52023;SDS011;38038;45.922;13.604;2023-03-05T07:11:12;14.77;;;13.70;;
52023;SDS011;38038;45.922;13.604;2023-03-05T07:13:39;15.67;;;14.23;;
52023;SDS011;38038;45.922;13.604;2023-03-05T07:16:06;15.10;;;13.93;;
52023;SDS011;38038;45.922;13.604;2023-03-05T07:18:33;14.40;;;13.30;;
52023;SDS011;38038;45.922;13.604;2023-03-05T07:21:03;15.03;;;13.83;;
52023;SDS011;38038;45.922;13.604;2023-03-05T07:23:30;14.20;;;13.17;;
52023;SDS011;38038;45.922;13.604;2023-03-05T07:25:56;15.60;;;14.23;;
52023;SDS011;38038;45.922;13.604;2023-03-05T07:28:22;14.87;;;13.70;;
52023;SDS011;38038;45.922;13.604;2023-03-05T07:30:57;14.50;;;13.40;;
52023;SDS011;38038;45.922;13.604;2023-03-05T07:33:28;14.73;;;13.43;;
52023;SDS011;38038;45.922;13.604;2023-03-05T07:35:54;14.03;;;12.83;;
52023;SDS011;38038;45.922;13.604;2023-03-05T07:38:20;13.57;;;12.30;;
52023;SDS011;38038;45.922;13.604;2023-03-05T07:40:46;13.70;;;12.70;;
52023;SDS011;38038;45.922;13.604;2023-03-05T07:43:12;15.10;;;13.70;;
52023;SDS011;38038;45.922;13.604;2023-03-05T07:45:42;14.30;;;13.20;;
52023;SDS011;38038;45.922;13.604;2023-03-05T07:48:11;15.23;;;13.93;;
52023;SDS011;38038;45.922;13.604;2023-03-05T07:50:41;14.23;;;13.23;;
52023;SDS011;38038;45.922;13.604;2023-03-05T07:53:08;15.33;;;14.20;;
52023;SDS011;38038;45.922;13.604;2023-03-05T07:55:34;14.20;;;13.10;;
52023;SDS011;38038;45.922;13.604;2023-03-05T07:58:05;13.93;;;12.83;;
52023;SDS011;38038;45.922;13.604;2023-03-05T08:00:31;16.30;;;14.97;;
52023;SDS011;38038;45.922;13.604;2023-03-05T08:02:56;14.40;;;13.40;;
52023;SDS011;38038;45.922;13.604;2023-03-05T08:05:22;14.87;;;13.57;;
52023;SDS011;38038;45.922;13.604;2023-03-05T08:07:48;14.30;;;13.30;;
52023;SDS011;38038;45.922;13.604;2023-03-05T08:10:13;15.80;;;14.50;;
52023;SDS011;38038;45.922;13.604;2023-03-05T08:12:39;16.10;;;14.70;;
52023;SDS011;38038;45.922;13.604;2023-03-05T08:15:05;14.87;;;13.60;;
52023;SDS011;38038;45.922;13.604;2023-03-05T08:17:31;16.07;;;14.67;;
52023;SDS011;38038;45.922;13.604;2023-03-05T08:19:56;15.60;;;14.30;;
52023;SDS011;38038;45.922;13.604;2023-03-05T08:22:24;15.27;;;14.07;;
52023;SDS011;38038;45.922;13.604;2023-03-05T08:24:50;15.13;;;13.87;;
52023;SDS011;38038;45.922;13.604;2023-03-05T08:27:16;15.40;;;14.10;;
52023;SDS011;38038;45.922;13.604;2023-03-05T08:29:41;15.47;;;14.27;;
52023;SDS011;38038;45.922;13.604;2023-03-05T08:32:07;15.03;;;13.90;;
52023;SDS011;38038;45.922;13.604;2023-03-05T08:34:33;16.27;;;14.97;;
52023;SDS011;38038;45.922;13.604;2023-03-05T08:36:59;15.97;;;14.60;;
52023;SDS011;38038;45.922;13.604;2023-03-05T08:39:24;15.60;;;14.50;;
52023;SDS011;38038;45.922;13.604;2023-03-05T08:41:50;14.27;;;13.07;;
52023;SDS011;38038;45.922;13.604;2023-03-05T08:44:16;12.87;;;11.70;;
52023;SDS011;38038;45.922;13.604;2023-03-05T08:46:42;37.93;;;35.63;;
52023;SDS011;38038;45.922;13.604;2023-03-05T08:49:08;16.23;;;14.60;;
52023;SDS011;38038;45.922;13.604;2023-03-05T08:51:34;14.80;;;13.80;;
52023;SDS011;38038;45.922;13.604;2023-03-05T08:54:00;15.17;;;13.97;;
52023;SDS011;38038;45.922;13.604;2023-03-05T08:56:27;15.80;;;14.40;;
52023;SDS011;38038;45.922;13.604;2023-03-05T08:58:55;17.03;;;15.73;;
52023;SDS011;38038;45.922;13.604;2023-03-05T09:01:21;15.00;;;13.80;;
52023;SDS011;38038;45.922;13.604;2023-03-05T09:03:47;14.97;;;13.87;;
52023;SDS011;38038;45.922;13.604;2023-03-05T09:06:13;16.07;;;14.80;;
52023;SDS011;38038;45.922;13.604;2023-03-05T09:08:39;15.53;;;14.33;;
52023;SDS011;38038;45.922;13.604;2023-03-05T09:11:06;14.67;;;13.57;;
52023;SDS011;38038;45.922;13.604;2023-03-05T09:13:33;15.30;;;14.30;;
52023;SDS011;38038;45.922;13.604;2023-03-05T09:16:00;15.00;;;13.67;;
52023;SDS011;38038;45.922;13.604;2023-03-05T09:18:27;14.93;;;13.73;;
52023;SDS011;38038;45.922;13.604;2023-03-05T09:20:54;15.60;;;14.53;;
52023;SDS011;38038;45.922;13.604;2023-03-05T09:23:20;16.30;;;14.47;;
52023;SDS011;38038;45.922;13.604;2023-03-05T09:25:46;15.10;;;14.10;;
52023;SDS011;38038;45.922;13.604;2023-03-05T09:28:13;18.90;;;17.60;;
52023;SDS011;38038;45.922;13.604;2023-03-05T09:30:39;14.30;;;13.30;;
52023;SDS011;38038;45.922;13.604;2023-03-05T09:33:04;14.97;;;13.73;;
52023;SDS011;38038;45.922;13.604;2023-03-05T09:35:33;14.90;;;13.80;;
52023;SDS011;38038;45.922;13.604;2023-03-05T09:37:59;15.13;;;13.83;;
52023;SDS011;38038;45.922;13.604;2023-03-05T09:40:25;14.17;;;13.20;;
52023;SDS011;38038;45.922;13.604;2023-03-05T09:49:07;16.20;;;14.90;;
52023;SDS011;38038;45.922;13.604;2023-03-05T09:51:53;15.53;;;14.33;;
52023;SDS011;38038;45.922;13.604;2023-03-05T09:54:31;16.23;;;14.80;;
52023;SDS011;38038;45.922;13.604;2023-03-05T09:57:02;16.63;;;15.30;;
52023;SDS011;38038;45.922;13.604;2023-03-05T10:02:29;17.30;;;16.20;;
52023;SDS011;38038;45.922;13.604;2023-03-05T10:07:37;14.50;;;13.30;;
52023;SDS011;38038;45.922;13.604;2023-03-05T10:12:39;14.33;;;13.20;;
52023;SDS011;38038;45.922;13.604;2023-03-05T10:15:54;15.23;;;14.13;;
52023;SDS011;38038;45.922;13.604;2023-03-05T10:21:38;15.43;;;14.00;;
52023;SDS011;38038;45.922;13.604;2023-03-05T10:32:33;14.40;;;13.30;;
52023;SDS011;38038;45.922;13.604;2023-03-05T10:35:10;14.37;;;13.07;;
52023;SDS011;38038;45.922;13.604;2023-03-05T10:45:56;13.40;;;12.38;;
52023;SDS011;38038;45.922;13.604;2023-03-05T10:51:18;15.70;;;14.50;;
52023;SDS011;38038;45.922;13.604;2023-03-05T10:59:48;13.53;;;12.33;;
52023;SDS011;38038;45.922;13.604;2023-03-05T11:02:15;15.47;;;14.10;;
52023;SDS011;38038;45.922;13.604;2023-03-05T11:04:42;13.00;;;11.77;;
52023;SDS011;38038;45.922;13.604;2023-03-05T11:09:40;13.80;;;12.70;;
52023;SDS011;38038;45.922;13.604;2023-03-05T11:12:27;14.07;;;12.93;;
52023;SDS011;38038;45.922;13.604;2023-03-05T11:17:37;13.73;;;12.73;;
52023;SDS011;38038;45.922;13.604;2023-03-05T11:20:27;14.63;;;13.30;;
52023;SDS011;38038;45.922;13.604;2023-03-05T11:25:28;13.93;;;12.93;;
52023;SDS011;38038;45.922;13.604;2023-03-05T11:27:55;13.40;;;12.50;;
52023;SDS011;38038;45.922;13.604;2023-03-05T11:35:36;13.73;;;12.53;;
52023;SDS011;38038;45.922;13.604;2023-03-05T11:38:04;13.10;;;11.93;;
52023;SDS011;38038;45.922;13.604;2023-03-05T11:40:39;13.23;;;12.07;;
52023;SDS011;38038;45.922;13.604;2023-03-05T11:43:04;12.27;;;11.17;;
52023;SDS011;38038;45.922;13.604;2023-03-05T11:45:31;12.67;;;11.77;;
52023;SDS011;38038;45.922;13.604;2023-03-05T11:48:00;12.77;;;11.83;;
52023;SDS011;38038;45.922;13.604;2023-03-05T11:50:42;14.50;;;13.15;;
52023;SDS011;38038;45.922;13.604;2023-03-05T11:53:14;12.23;;;11.23;;
52023;SDS011;38038;45.922;13.604;2023-03-05T11:55:51;14.50;;;13.43;;
52023;SDS011;38038;45.922;13.604;2023-03-05T12:01:13;12.47;;;11.47;;
52023;SDS011;38038;45.922;13.604;2023-03-05T12:03:41;12.10;;;11.20;;
52023;SDS011;38038;45.922;13.604;2023-03-05T12:08:59;13.43;;;12.30;;
52023;SDS011;38038;45.922;13.604;2023-03-05T12:11:39;14.97;;;12.80;;
52023;SDS011;38038;45.922;13.604;2023-03-05T12:16:41;13.10;;;12.10;;
52023;SDS011;38038;45.922;13.604;2023-03-05T12:22:40;14.83;;;13.53;;
52023;SDS011;38038;45.922;13.604;2023-03-05T12:27:56;12.20;;;11.30;;
52023;SDS011;38038;45.922;13.604;2023-03-05T12:33:04;12.80;;;11.50;;
52023;SDS011;38038;45.922;13.604;2023-03-05T12:35:33;15.00;;;11.53;;
52023;SDS011;38038;45.922;13.604;2023-03-05T12:38:02;12.63;;;11.30;;
52023;SDS011;38038;45.922;13.604;2023-03-05T12:40:32;11.23;;;10.43;;
52023;SDS011;38038;45.922;13.604;2023-03-05T12:43:02;11.20;;;10.40;;
52023;SDS011;38038;45.922;13.604;2023-03-05T12:45:41;11.03;;;10.30;;
52023;SDS011;38038;45.922;13.604;2023-03-05T12:55:34;11.47;;;10.47;;
52023;SDS011;38038;45.922;13.604;2023-03-05T13:00:39;12.23;;;11.37;;
52023;SDS011;38038;45.922;13.604;2023-03-05T13:03:29;12.43;;;11.17;;
52023;SDS011;38038;45.922;13.604;2023-03-05T13:05:59;11.53;;;10.63;;
52023;SDS011;38038;45.922;13.604;2023-03-05T13:08:31;12.17;;;11.10;;
52023;SDS011;38038;45.922;13.604;2023-03-05T13:11:10;11.65;;;10.88;;
52023;SDS011;38038;45.922;13.604;2023-03-05T13:13:43;12.37;;;9.73;;
52023;SDS011;38038;45.922;13.604;2023-03-05T13:16:21;11.80;;;10.80;;
52023;SDS011;38038;45.922;13.604;2023-03-05T13:18:53;13.23;;;12.03;;
52023;SDS011;38038;45.922;13.604;2023-03-05T13:21:31;12.30;;;11.10;;
52023;SDS011;38038;45.922;13.604;2023-03-05T13:24:00;11.57;;;10.67;;
52023;SDS011;38038;45.922;13.604;2023-03-05T13:26:37;11.17;;;10.27;;
52023;SDS011;38038;45.922;13.604;2023-03-05T13:31:44;11.40;;;10.57;;
52023;SDS011;38038;45.922;13.604;2023-03-05T13:34:24;11.60;;;10.60;;
52023;SDS011;38038;45.922;13.604;2023-03-05T13:37:17;12.23;;;11.23;;
52023;SDS011;38038;45.922;13.604;2023-03-05T13:39:46;11.60;;;10.60;;
52023;SDS011;38038;45.922;13.604;2023-03-05T13:42:32;12.23;;;10.97;;
52023;SDS011;38038;45.922;13.604;2023-03-05T13:45:01;11.50;;;10.60;;
52023;SDS011;38038;45.922;13.604;2023-03-05T13:47:56;11.53;;;10.37;;
52023;SDS011;38038;45.922;13.604;2023-03-05T13:50:24;12.30;;;11.20;;
52023;SDS011;38038;45.922;13.604;2023-03-05T13:52:54;11.20;;;10.37;;
52023;SDS011;38038;45.922;13.604;2023-03-05T13:55:37;11.13;;;10.40;;
52023;SDS011;38038;45.922;13.604;2023-03-05T13:58:03;12.87;;;11.67;;
52023;SDS011;38038;45.922;13.604;2023-03-05T14:00:33;14.10;;;12.97;;
52023;SDS011;38038;45.922;13.604;2023-03-05T14:05:46;11.90;;;10.90;;
52023;SDS011;38038;45.922;13.604;2023-03-05T14:08:17;14.10;;;11.27;;
52023;SDS011;38038;45.922;13.604;2023-03-05T14:10:46;12.03;;;11.03;;
52023;SDS011;38038;45.922;13.604;2023-03-05T14:13:16;12.30;;;11.03;;
52023;SDS011;38038;45.922;13.604;2023-03-05T14:16:01;12.53;;;11.53;;
52023;SDS011;38038;45.922;13.604;2023-03-05T14:18:36;12.20;;;11.30;;
52023;SDS011;38038;45.922;13.604;2023-03-05T14:21:06;10.50;;;9.80;;
52023;SDS011;38038;45.922;13.604;2023-03-05T14:23:36;10.80;;;10.10;;
52023;SDS011;38038;45.922;13.604;2023-03-05T14:31:28;10.73;;;9.90;;
52023;SDS011;38038;45.922;13.604;2023-03-05T14:34:01;10.47;;;9.57;;
52023;SDS011;38038;45.922;13.604;2023-03-05T14:36:29;11.47;;;10.47;;
52023;SDS011;38038;45.922;13.604;2023-03-05T14:38:55;10.37;;;9.67;;
52023;SDS011;38038;45.922;13.604;2023-03-05T14:41:31;10.83;;;9.97;;
52023;SDS011;38038;45.922;13.604;2023-03-05T14:44:07;10.57;;;9.97;;
52023;SDS011;38038;45.922;13.604;2023-03-05T14:46:47;11.20;;;10.40;;
52023;SDS011;38038;45.922;13.604;2023-03-05T14:49:14;11.60;;;10.53;;
52023;SDS011;38038;45.922;13.604;2023-03-05T14:51:41;10.03;;;9.27;;
52023;SDS011;38038;45.922;13.604;2023-03-05T14:54:19;11.07;;;10.07;;
52023;SDS011;38038;45.922;13.604;2023-03-05T14:56:46;11.77;;;10.87;;
52023;SDS011;38038;45.922;13.604;2023-03-05T14:59:13;11.57;;;10.73;;
52023;SDS011;38038;45.922;13.604;2023-03-05T15:01:39;12.10;;;11.20;;
52023;SDS011;38038;45.922;13.604;2023-03-05T15:04:05;13.23;;;12.07;;
52023;SDS011;38038;45.922;13.604;2023-03-05T15:06:34;12.77;;;11.67;;
52023;SDS011;38038;45.922;13.604;2023-03-05T15:09:04;12.70;;;11.50;;
52023;SDS011;38038;45.922;13.604;2023-03-05T15:11:31;13.83;;;12.70;;
52023;SDS011;38038;45.922;13.604;2023-03-05T15:13:57;13.67;;;12.57;;
52023;SDS011;38038;45.922;13.604;2023-03-05T15:16:23;13.40;;;12.30;;
52023;SDS011;38038;45.922;13.604;2023-03-05T15:18:49;13.23;;;12.07;;
52023;SDS011;38038;45.922;13.604;2023-03-05T15:21:14;16.30;;;14.53;;
52023;SDS011;38038;45.922;13.604;2023-03-05T15:23:40;15.40;;;13.47;;
52023;SDS011;38038;45.922;13.604;2023-03-05T15:26:08;14.87;;;13.67;;
52023;SDS011;38038;45.922;13.604;2023-03-05T15:28:39;13.80;;;12.70;;
52023;SDS011;38038;45.922;13.604;2023-03-05T15:31:05;14.63;;;13.13;;
52023;SDS011;38038;45.922;13.604;2023-03-05T15:33:32;14.97;;;13.80;;
52023;SDS011;38038;45.922;13.604;2023-03-05T15:35:58;14.30;;;13.10;;
52023;SDS011;38038;45.922;13.604;2023-03-05T15:38:24;16.90;;;15.20;;
52023;SDS011;38038;45.922;13.604;2023-03-05T15:40:50;16.97;;;15.50;;
52023;SDS011;38038;45.922;13.604;2023-03-05T15:43:16;13.57;;;12.47;;
52023;SDS011;38038;45.922;13.604;2023-03-05T15:45:43;15.47;;;14.17;;
52023;SDS011;38038;45.922;13.604;2023-03-05T15:48:08;14.73;;;13.17;;
52023;SDS011;38038;45.922;13.604;2023-03-05T15:50:34;15.63;;;14.43;;
52023;SDS011;38038;45.922;13.604;2023-03-05T15:53:00;15.40;;;14.00;;
52023;SDS011;38038;45.922;13.604;2023-03-05T15:55:26;15.83;;;14.40;;
52023;SDS011;38038;45.922;13.604;2023-03-05T15:57:52;16.33;;;14.63;;
52023;SDS011;38038;45.922;13.604;2023-03-05T16:00:25;15.13;;;13.93;;
52023;SDS011;38038;45.922;13.604;2023-03-05T16:02:54;15.73;;;14.30;;